Flight Track Log - Related Links

Times and Time Zones

All times are in EDT time to prevent confusion due to time zone crossing. See the AWE1940 flight status page for this flight to view local times or setup timezone preferences in your user account.

Time Position Orientation Groundspeed Altitude Reporting Facility
EDT Latitude Longitude Course Direction KTS MPH feet Rate Location/Type
Thu 06:36:49 PM 29.9572 -95.3392 41° Northeast 176 203 900  Level Houston Center
Thu 06:38:16 PM 29.9633 -95.4083 276° West 280 322 3,400 1,257 Climbing Houston Center
Thu 06:39:00 PM 30.2633 -95.1023 30° Northeast  Level FlightAware Approximate
Thu 06:39:17 PM 30.0381 -95.3753 21° North 286 329 4,000  Level Houston Center
Thu 06:40:00 PM 30.3607 -95.0314 35° Northeast  Level FlightAware Approximate
Thu 06:40:18 PM 30.0978 -95.3175 40° Northeast 278 320 4,000  Level Houston Center
Thu 06:41:00 PM 30.4512 -94.9492 30° Northeast  Level FlightAware Approximate
Thu 06:41:25 PM 30.1656 -95.2564 38° Northeast 278 320 4,400  Level Houston Center
Thu 06:42:00 PM 30.5509 -94.8825 41° Northeast  Level FlightAware Approximate
Thu 06:42:27 PM 30.2272 -95.1986 39° Northeast 282 325 7,200  Level Houston Center
Thu 06:43:29 PM 30.2903 -95.1392 39° Northeast 289 333 10,000 1,984 Climbing Houston Center
Thu 06:44:31 PM 30.3619 -95.0733 38° Northeast 318 366 11,300 2,032 Climbing Houston Center
Thu 06:45:33 PM 30.4511 -94.9872 40° Northeast 354 407 14,200 2,419 Climbing Houston Center
Thu 06:46:35 PM 30.5319 -94.9108 39° Northeast 368 423 16,300 2,177 Climbing Houston Center
Thu 06:47:37 PM 30.6208 -94.8389 35° Northeast 383 441 18,700 1,935 Climbing Houston Center
Thu 06:48:39 PM 30.7097 -94.7703 34° Northeast 384 442 20,300 1,548 Climbing Houston Center
Thu 06:49:41 PM 30.8050 -94.6975 33° Northeast 400 460 21,900 1,548 Climbing Houston Center
Thu 06:50:43 PM 30.9011 -94.6228 34° Northeast 414 476 23,500 1,500 Climbing Houston Center
Thu 06:51:45 PM 31.0197 -94.5308 34° Northeast 430 495 25,000 720 Climbing Houston Center
Thu 06:52:48 PM 31.1175 -94.4533 34° Northeast 429 494 25,000  Level Houston Center
Thu 06:53:50 PM 31.2175 -94.3767 33° Northeast 434 499 25,000  Level Houston Center
Thu 06:54:52 PM 31.2931 -94.2681 51° Northeast 436 502 25,000  Level Houston Center
Thu 06:55:54 PM 31.3617 -94.1533 55° Northeast 436 502 25,000 97 Level Houston Center
Thu 06:56:56 PM 31.4439 -94.0139 55° Northeast 435 501 25,200 770 Climbing Houston Center
Thu 06:58:22 PM 31.5117 -93.8244 67° East 452 520 26,900 1,419 Climbing Houston Center
Thu 06:59:24 PM 31.5592 -93.6864 68° East 457 526 28,700 1,742 Climbing Houston Center
Thu 07:00:26 PM 31.6086 -93.5447 68° East 446 513 30,500 1,355 Climbing Houston Center
Thu 07:01:28 PM 31.6550 -93.4114 68° East 439 505 31,500 960 Climbing Houston Center
Thu 07:02:31 PM 31.7039 -93.2672 68° East 441 507 32,500 720 Climbing Houston Center
Thu 07:03:33 PM 31.7503 -93.1303 68° East 449 517 33,000 242 Climbing Houston Center
Thu 07:04:35 PM 31.7978 -92.9967 67° East 445 512 33,000  Level Houston Center
Thu 07:05:37 PM 31.8433 -92.8594 69° East 448 516 33,000  Level Houston Center
Thu 07:06:39 PM 31.8897 -92.7231 68° East 450 518 33,000  Level Houston Center
Thu 07:07:41 PM 31.9444 -92.5583 69° East 450 518 33,000  Level Houston Center
Thu 07:08:43 PM 31.9908 -92.4217 68° East 450 518 33,000  Level Houston Center
Thu 07:09:45 PM 32.0372 -92.2822 69° East 456 525 33,000  Level Houston Center
Thu 07:10:47 PM 32.0814 -92.1422 70° East 456 525 33,000  Level Houston Center
Thu 07:11:49 PM 32.1258 -92.0083 69° East 459 528 33,000  Level Houston Center
Thu 07:12:51 PM 32.1792 -91.8397 69° East 458 527 33,000  Level Houston Center
Thu 07:13:53 PM 32.2253 -91.7006 69° East 455 524 33,000  Level Houston Center
Thu 07:14:55 PM 32.2706 -91.5617 69° East 454 522 33,000  Level Houston Center
Thu 07:15:57 PM 32.3153 -91.4222 69° East 454 522 33,000  Level Houston Center
Thu 07:16:59 PM 32.3600 -91.2842 69° East 451 519 33,000  Level Houston Center
Thu 07:17:44 PM 32.3917 -91.1792 70° East 445 512 33,000  Level Memphis Center
Thu 07:18:44 PM 32.4364 -91.0367 70° East 450 518 33,000  Level Memphis Center
Thu 07:19:44 PM 32.4786 -90.8992 70° East 450 518 33,000  Level Memphis Center
Thu 07:20:44 PM 32.5231 -90.7589 69° East 450 518 33,000  Level Memphis Center
Thu 07:21:44 PM 32.5694 -90.6186 69° East 450 518 33,000  Level Memphis Center
Thu 07:22:43 PM 32.6133 -90.4806 69° East 450 518 33,000  Level Memphis Center
Thu 07:23:43 PM 32.6572 -90.3350 70° East 450 518 33,000  Level Memphis Center
Thu 07:24:43 PM 32.7031 -90.1944 69° East 450 518 33,000  Level Memphis Center
Thu 07:25:43 PM 32.7508 -90.0361 70° East 455 524 33,000  Level Memphis Center
Thu 07:26:44 PM 32.7922 -89.8950 71° East 455 524 33,000  Level Memphis Center
Thu 07:27:43 PM 32.8353 -89.7467 71° East 460 529 33,000  Level Memphis Center
Thu 07:28:43 PM 32.8847 -89.6028 68° East 465 535 33,000  Level Memphis Center
Thu 07:29:43 PM 32.9233 -89.4711 71° East 465 535 33,000  Level Memphis Center
Thu 07:30:43 PM 32.9683 -89.3322 69° East 465 535 33,000  Level Memphis Center
Thu 07:31:44 PM 33.0128 -89.1856 70° East 465 535 33,000  Level Memphis Center
Thu 07:32:44 PM 33.0553 -89.0411 71° East 465 535 33,000  Level Memphis Center
Thu 07:33:44 PM 33.0994 -88.8967 70° East 465 535 33,000  Level Memphis Center
Thu 07:34:44 PM 33.1417 -88.7519 71° East 465 535 33,000  Level Memphis Center
Thu 07:37:08 PM 33.2378 -88.3800 73° East 470 541 33,000  Level Atlanta Center
Thu 07:38:08 PM 33.2536 -88.2244 83° East 470 541 33,000  Level Atlanta Center
Thu 07:39:08 PM 33.2733 -88.0689 81° East 470 541 33,000  Level Atlanta Center
Thu 07:40:08 PM 33.2889 -87.9131 83° East 470 541 33,000  Level Atlanta Center
Thu 07:41:08 PM 33.3061 -87.7547 83° East 470 541 33,000  Level Atlanta Center
Thu 07:42:08 PM 33.3233 -87.6014 82° East 470 541 33,000  Level Atlanta Center
Thu 07:43:08 PM 33.3403 -87.4403 83° East 470 541 33,000  Level Atlanta Center
Thu 07:44:08 PM 33.3569 -87.2844 83° East 475 547 33,000  Level Atlanta Center
Thu 07:45:08 PM 33.3756 -87.1283 82° East 475 547 33,000  Level Atlanta Center
Thu 07:46:08 PM 33.3900 -86.9697 84° East 475 547 33,000  Level Atlanta Center
Thu 07:47:08 PM 33.4061 -86.8108 83° East 475 547 33,000  Level Atlanta Center
Thu 07:48:08 PM 33.4242 -86.6547 82° East 481 554 33,000  Level Atlanta Center
Thu 07:49:08 PM 33.4378 -86.4983 84° East 481 554 33,000  Level Atlanta Center
Thu 07:50:08 PM 33.4553 -86.3594 81° East 481 554 33,000  Level Atlanta Center
Thu 07:51:08 PM 33.4706 -86.2003 83° East 476 548 33,000  Level Atlanta Center
Thu 07:52:08 PM 33.4858 -86.0439 83° East 471 542 33,000  Level Atlanta Center
Thu 07:53:08 PM 33.5008 -85.8847 84° East 478 550 33,000  Level Atlanta Center
Thu 07:54:08 PM 33.5178 -85.7181 83° East 472 543 33,000  Level Atlanta Center
Thu 07:55:08 PM 33.5300 -85.5764 84° East 472 543 33,000  Level Atlanta Center
Thu 07:56:08 PM 33.5444 -85.4172 84° East 472 543 33,000  Level Atlanta Center
Thu 07:57:08 PM 33.5586 -85.2578 84° East 472 543 33,000  Level Atlanta Center
Thu 07:58:08 PM 33.5706 -85.1008 85° East 472 543 33,000  Level Atlanta Center
Thu 07:59:08 PM 33.5989 -84.9467 78° East 477 549 33,000  Level Atlanta Center
Thu 08:00:08 PM 33.6397 -84.7800 74° East 477 549 33,000  Level Atlanta Center
Thu 08:01:08 PM 33.6781 -84.6231 74° East 472 543 33,000  Level Atlanta Center
Thu 08:02:08 PM 33.7058 -84.4883 76° East 467 537 33,000 -300 Level Atlanta Center
Thu 08:03:08 PM 33.7481 -84.3386 71° East 467 537 32,400 -800 Descending Atlanta Center
Thu 08:04:08 PM 33.7836 -84.1764 75° East 478 550 31,400 -700 Descending Atlanta Center
Thu 08:05:08 PM 33.8214 -84.0239 73° East 485 558 31,000 -200 Descending Atlanta Center
Thu 08:06:08 PM 33.8589 -83.8736 73° East 470 541 31,000  Level Atlanta Center
Thu 08:07:08 PM 33.8961 -83.7183 74° East 470 541 31,000  Level Atlanta Center
Thu 08:08:08 PM 33.9289 -83.5656 75° East 470 541 31,000  Level Atlanta Center
Thu 08:09:08 PM 33.9700 -83.3950 74° East 475 547 31,000  Level Atlanta Center
Thu 08:10:08 PM 34.0044 -83.2369 75° East 475 547 31,000  Level Atlanta Center
Thu 08:11:08 PM 34.0619 -83.0933 64° Northeast 469 540 31,000 -200 Level Atlanta Center
Thu 08:12:08 PM 34.1275 -82.9497 61° Northeast 469 540 30,600 -700 Descending Atlanta Center
Thu 08:13:08 PM 34.1908 -82.8108 61° Northeast 474 545 29,600 -1,000 Descending Atlanta Center
Thu 08:14:08 PM 34.2478 -82.6642 65° Northeast 474 545 28,600 -900 Descending Atlanta Center
Thu 08:15:08 PM 34.3069 -82.5425 59° Northeast 469 540 27,800 -900 Descending Atlanta Center
Thu 08:16:08 PM 34.3697 -82.3981 62° Northeast 474 545 26,800 -1,400 Descending Atlanta Center
Thu 08:17:08 PM 34.4264 -82.2608 63° Northeast 474 545 25,000 -2,100 Descending Atlanta Center
Thu 08:18:08 PM 34.4869 -82.1233 62° Northeast 463 533 22,600 -2,350 Descending Atlanta Center
Thu 08:19:08 PM 34.5411 -81.9961 63° Northeast 439 505 20,300 -2,474 Descending Atlanta Center
Thu 08:20:02 PM 34.5933 -81.8739 63° Northeast 405 466 17,900 -2,412 Descending Atlanta Center
Thu 08:20:45 PM 34.6253 -81.7922 65° Northeast 391 450 16,400 -2,135 Descending Atlanta Center
Thu 08:21:46 PM 34.6753 -81.6797 62° Northeast 372 428 14,200 -2,115 Descending Atlanta Center
Thu 08:22:47 PM 34.7253 -81.5647 62° Northeast 353 406 12,100 -1,138 Descending Atlanta Center
Thu 08:23:42 PM 34.7739 -81.4922 51° Northeast 337 388 12,000 -52 Descending Atlanta Center
Thu 08:24:43 PM 34.8428 -81.4042 46° Northeast 328 377 12,000  Level Atlanta Center
Thu 08:25:44 PM 34.9058 -81.3236 46° Northeast 329 379 12,000 -787 Level Atlanta Center
Thu 08:26:45 PM 34.9686 -81.2431 46° Northeast 331 381 10,400 -1,241 Descending Atlanta Center
Thu 08:27:40 PM 35.0233 -81.1753 45° Northeast 297 342 9,600 -639 Descending Atlanta Center
Thu 08:28:47 PM 35.0928 -81.1094 38° Northeast 270 311 9,100 -246 Descending Atlanta Center
Thu 08:29:42 PM 35.1506 -81.0769 25° Northeast 276 318 9,100 -776 Level Atlanta Center
Thu 08:30:43 PM 35.2244 -81.0286 28° Northeast 275 316 7,600 -1,574 Descending Atlanta Center
Thu 08:31:44 PM 35.2814 -80.9706 40° Northeast 264 304 5,900 -1,268 Descending Atlanta Center
Thu 08:32:46 PM 35.3383 -80.9097 41° Northeast 261 300 5,000 -750 Descending Atlanta Center
Thu 08:33:52 PM 35.3889 -80.8492 44° Northeast 229 264 4,300 -496 Descending Atlanta Center
Thu 08:34:47 PM 35.3625 -80.7994 123° Southeast 194 223 4,000 -308 Descending Atlanta Center
Thu 08:35:49 PM 35.3169 -80.8089 190° South 182 209 3,700 -290 Descending Atlanta Center

Login

Don't have an account? Register now (free) for customized features, flight alerts, and more!